sensor_id;sensor_type;location;lat;lon;timestamp;pressure;altitude;pressure_sealevel;temperature;humidity
64064;BME280;50314;50.618;10.642;2023-05-02T00:00:37;96668.81;;;18.57;22.79
64064;BME280;50314;50.618;10.642;2023-05-02T00:03:03;96667.13;;;18.55;22.66
64064;BME280;50314;50.618;10.642;2023-05-02T00:05:30;96670.13;;;18.52;22.76
64064;BME280;50314;50.618;10.642;2023-05-02T00:07:55;96661.31;;;18.52;22.79
64064;BME280;50314;50.618;10.642;2023-05-02T00:10:21;96661.63;;;18.49;22.53
64064;BME280;50314;50.618;10.642;2023-05-02T00:12:47;96661.63;;;18.49;22.53
64064;BME280;50314;50.618;10.642;2023-05-02T00:15:12;96654.63;;;18.48;22.61
64064;BME280;50314;50.618;10.642;2023-05-02T00:17:41;96653.28;;;18.44;22.56
64064;BME280;50314;50.618;10.642;2023-05-02T00:20:11;96655.28;;;18.42;22.98
64064;BME280;50314;50.618;10.642;2023-05-02T00:22:37;96649.94;;;18.42;22.57
64064;BME280;50314;50.618;10.642;2023-05-02T00:25:03;96657.94;;;18.42;22.66
64064;BME280;50314;50.618;10.642;2023-05-02T00:27:29;96648.28;;;18.41;22.84
64064;BME280;50314;50.618;10.642;2023-05-02T00:29:54;96658.97;;;18.41;22.80
64064;BME280;50314;50.618;10.642;2023-05-02T00:32:20;96649.28;;;18.40;22.70
64064;BME280;50314;50.618;10.642;2023-05-02T00:34:45;96646.59;;;18.40;22.93
64064;BME280;50314;50.618;10.642;2023-05-02T00:37:11;96647.63;;;18.39;22.87
64064;BME280;50314;50.618;10.642;2023-05-02T00:39:37;96650.47;;;18.37;22.93
64064;BME280;50314;50.618;10.642;2023-05-02T00:42:02;96647.25;;;18.34;22.59
64064;BME280;50314;50.618;10.642;2023-05-02T00:44:28;96648.13;;;18.34;22.86
64064;BME280;50314;50.618;10.642;2023-05-02T00:46:54;96653.59;;;18.33;22.97
64064;BME280;50314;50.618;10.642;2023-05-02T00:49:20;96653.78;;;18.31;22.71
64064;BME280;50314;50.618;10.642;2023-05-02T00:51:46;96648.44;;;18.31;22.58
64064;BME280;50314;50.618;10.642;2023-05-02T00:54:12;96647.94;;;18.27;23.19
64064;BME280;50314;50.618;10.642;2023-05-02T00:56:38;96653.25;;;18.27;22.61
64064;BME280;50314;50.618;10.642;2023-05-02T00:59:07;96657.22;;;18.23;22.86
64064;BME280;50314;50.618;10.642;2023-05-02T01:13:18;96661.88;;;18.13;22.73
64064;BME280;50314;50.618;10.642;2023-05-02T01:15:47;96660.72;;;18.16;22.97
64064;BME280;50314;50.618;10.642;2023-05-02T01:18:15;96659.88;;;18.15;22.79
64064;BME280;50314;50.618;10.642;2023-05-02T01:20:43;96657.91;;;18.17;23.15
64064;BME280;50314;50.618;10.642;2023-05-02T01:23:20;96665.22;;;18.15;22.87
64064;BME280;50314;50.618;10.642;2023-05-02T01:28:26;96678.53;;;18.15;23.02
64064;BME280;50314;50.618;10.642;2023-05-02T01:30:53;96669.03;;;18.13;22.70
64064;BME280;50314;50.618;10.642;2023-05-02T01:33:21;96674.50;;;18.11;22.88
64064;BME280;50314;50.618;10.642;2023-05-02T01:35:50;96670.00;;;18.12;23.33
64064;BME280;50314;50.618;10.642;2023-05-02T01:38:17;96671.84;;;18.11;23.09
64064;BME280;50314;50.618;10.642;2023-05-02T01:40:43;96676.16;;;18.04;22.96
64064;BME280;50314;50.618;10.642;2023-05-02T01:43:11;96684.47;;;18.09;23.17
64064;BME280;50314;50.618;10.642;2023-05-02T01:45:37;96684.47;;;18.09;22.74
64064;BME280;50314;50.618;10.642;2023-05-02T01:48:05;96687.16;;;18.09;23.15
64064;BME280;50314;50.618;10.642;2023-05-02T01:50:32;96685.47;;;18.08;22.87
64064;BME280;50314;50.618;10.642;2023-05-02T01:52:59;96687.47;;;18.06;22.88
64064;BME280;50314;50.618;10.642;2023-05-02T01:55:26;96688.47;;;18.05;23.03
64064;BME280;50314;50.618;10.642;2023-05-02T01:57:53;96690.31;;;18.04;22.82
64064;BME280;50314;50.618;10.642;2023-05-02T02:00:20;96699.31;;;18.03;22.74
64064;BME280;50314;50.618;10.642;2023-05-02T02:02:47;96697.59;;;18.02;23.00
64064;BME280;50314;50.618;10.642;2023-05-02T02:05:15;96697.59;;;18.02;22.98
64064;BME280;50314;50.618;10.642;2023-05-02T02:07:42;96688.78;;;18.02;23.23
64064;BME280;50314;50.618;10.642;2023-05-02T02:10:08;96697.94;;;17.99;23.16
64064;BME280;50314;50.618;10.642;2023-05-02T02:12:53;96702.09;;;17.94;23.20
64064;BME280;50314;50.618;10.642;2023-05-02T02:15:33;96691.56;;;17.92;23.23
64064;BME280;50314;50.618;10.642;2023-05-02T02:18:01;96701.09;;;17.95;23.15
64064;BME280;50314;50.618;10.642;2023-05-02T02:20:30;96712.88;;;17.92;22.89
64064;BME280;50314;50.618;10.642;2023-05-02T02:22:58;96703.91;;;17.93;23.17
64064;BME280;50314;50.618;10.642;2023-05-02T02:25:26;96703.06;;;17.93;22.83
64064;BME280;50314;50.618;10.642;2023-05-02T02:27:52;96706.41;;;17.95;22.88
64064;BME280;50314;50.618;10.642;2023-05-02T02:30:18;96705.59;;;17.94;23.10
64064;BME280;50314;50.618;10.642;2023-05-02T02:32:43;96710.09;;;17.94;22.75
64064;BME280;50314;50.618;10.642;2023-05-02T02:35:09;96711.06;;;17.93;22.89
64064;BME280;50314;50.618;10.642;2023-05-02T02:37:47;96713.38;;;17.88;23.10
64064;BME280;50314;50.618;10.642;2023-05-02T02:40:29;96713.50;;;17.86;23.31
64064;BME280;50314;50.618;10.642;2023-05-02T02:43:43;96717.50;;;17.82;23.09
64064;BME280;50314;50.618;10.642;2023-05-02T02:46:33;96719.50;;;17.80;23.06
64064;BME280;50314;50.618;10.642;2023-05-02T02:49:14;96713.00;;;17.82;23.24
64064;BME280;50314;50.618;10.642;2023-05-02T02:54:46;96722.31;;;17.78;22.97
64064;BME280;50314;50.618;10.642;2023-05-02T02:57:17;96725.81;;;17.79;23.48
64064;BME280;50314;50.618;10.642;2023-05-02T02:59:57;96735.94;;;17.75;23.37
64064;BME280;50314;50.618;10.642;2023-05-02T03:02:27;96738.59;;;17.75;23.02
64064;BME280;50314;50.618;10.642;2023-05-02T03:04:56;96739.28;;;17.77;23.22
64064;BME280;50314;50.618;10.642;2023-05-02T03:07:22;96734.97;;;17.76;23.34
64064;BME280;50314;50.618;10.642;2023-05-02T03:09:47;96743.09;;;17.75;23.08
64064;BME280;50314;50.618;10.642;2023-05-02T03:12:13;96748.44;;;17.75;23.23
64064;BME280;50314;50.618;10.642;2023-05-02T03:14:39;96746.78;;;17.74;23.15
64064;BME280;50314;50.618;10.642;2023-05-02T03:17:05;96749.75;;;17.71;23.31
64064;BME280;50314;50.618;10.642;2023-05-02T03:19:33;96751.56;;;17.70;23.46
64064;BME280;50314;50.618;10.642;2023-05-02T03:21:58;96751.56;;;17.70;23.28
64064;BME280;50314;50.618;10.642;2023-05-02T03:24:24;96757.72;;;17.71;23.08
64064;BME280;50314;50.618;10.642;2023-05-02T03:26:56;96756.91;;;17.70;23.25
64064;BME280;50314;50.618;10.642;2023-05-02T03:29:24;96758.38;;;17.73;23.00
64064;BME280;50314;50.618;10.642;2023-05-02T03:31:50;96756.59;;;17.73;23.25
64064;BME280;50314;50.618;10.642;2023-05-02T03:34:15;96759.25;;;17.73;23.10
64064;BME280;50314;50.618;10.642;2023-05-02T03:36:41;96762.75;;;17.74;23.40
64064;BME280;50314;50.618;10.642;2023-05-02T03:39:06;96766.25;;;17.74;23.01
64064;BME280;50314;50.618;10.642;2023-05-02T03:41:32;96762.75;;;17.74;22.98
64064;BME280;50314;50.618;10.642;2023-05-02T03:43:57;96766.38;;;17.73;23.03
64064;BME280;50314;50.618;10.642;2023-05-02T03:46:24;96771.88;;;17.71;23.01
64064;BME280;50314;50.618;10.642;2023-05-02T03:48:49;96775.69;;;17.69;23.20
64064;BME280;50314;50.618;10.642;2023-05-02T03:51:15;96781.84;;;17.69;23.40
64064;BME280;50314;50.618;10.642;2023-05-02T03:53:41;96788.16;;;17.68;23.35
64064;BME280;50314;50.618;10.642;2023-05-02T03:56:06;96784.69;;;17.68;23.26
64064;BME280;50314;50.618;10.642;2023-05-02T03:58:33;96783.84;;;17.67;23.40
64064;BME280;50314;50.618;10.642;2023-05-02T04:01:00;96787.34;;;17.68;23.24
64064;BME280;50314;50.618;10.642;2023-05-02T04:03:26;96790.16;;;17.66;23.34
64064;BME280;50314;50.618;10.642;2023-05-02T04:05:52;96787.47;;;17.66;23.36
64064;BME280;50314;50.618;10.642;2023-05-02T04:08:18;96787.47;;;17.66;23.37
64064;BME280;50314;50.618;10.642;2023-05-02T04:10:43;96786.81;;;17.64;23.21
64064;BME280;50314;50.618;10.642;2023-05-02T04:13:09;96791.16;;;17.65;23.22
64064;BME280;50314;50.618;10.642;2023-05-02T04:15:34;96786.81;;;17.64;23.33
64064;BME280;50314;50.618;10.642;2023-05-02T04:17:59;96794.63;;;17.66;23.43
64064;BME280;50314;50.618;10.642;2023-05-02T04:20:25;96791.16;;;17.65;23.26
64064;BME280;50314;50.618;10.642;2023-05-02T04:22:51;96795.81;;;17.63;23.39
64064;BME280;50314;50.618;10.642;2023-05-02T04:25:17;96797.47;;;17.64;23.12
64064;BME280;50314;50.618;10.642;2023-05-02T04:27:42;96807.97;;;17.66;23.45
64064;BME280;50314;50.618;10.642;2023-05-02T04:30:08;96810.78;;;17.64;23.33
64064;BME280;50314;50.618;10.642;2023-05-02T04:32:35;96813.28;;;17.66;23.38
64064;BME280;50314;50.618;10.642;2023-05-02T04:35:00;96814.97;;;17.67;23.35
64064;BME280;50314;50.618;10.642;2023-05-02T04:37:26;96816.78;;;17.66;23.18
64064;BME280;50314;50.618;10.642;2023-05-02T04:39:51;96826.47;;;17.67;23.32
64064;BME280;50314;50.618;10.642;2023-05-02T04:42:17;96826.47;;;17.67;23.18
64064;BME280;50314;50.618;10.642;2023-05-02T04:44:42;96827.28;;;17.68;23.10
64064;BME280;50314;50.618;10.642;2023-05-02T04:47:08;96837.13;;;17.67;23.32
64064;BME280;50314;50.618;10.642;2023-05-02T04:49:33;96836.94;;;17.69;23.36
64064;BME280;50314;50.618;10.642;2023-05-02T04:51:59;96844.09;;;17.68;23.28
64064;BME280;50314;50.618;10.642;2023-05-02T04:54:24;96845.09;;;17.67;23.20
64064;BME280;50314;50.618;10.642;2023-05-02T04:56:50;96848.59;;;17.68;23.24
64064;BME280;50314;50.618;10.642;2023-05-02T04:59:15;96852.09;;;17.68;23.48
64064;BME280;50314;50.618;10.642;2023-05-02T05:01:41;96860.09;;;17.68;23.36
64064;BME280;50314;50.618;10.642;2023-05-02T05:04:07;96863.59;;;17.69;23.26
64064;BME280;50314;50.618;10.642;2023-05-02T05:06:32;96864.28;;;17.71;23.38
64064;BME280;50314;50.618;10.642;2023-05-02T05:08:57;96874.63;;;17.74;23.56
64064;BME280;50314;50.618;10.642;2023-05-02T05:11:24;96878.94;;;17.75;23.31
64064;BME280;50314;50.618;10.642;2023-05-02T05:13:50;96887.63;;;17.77;23.26
64064;BME280;50314;50.618;10.642;2023-05-02T05:16:16;96888.47;;;17.77;23.54
64064;BME280;50314;50.618;10.642;2023-05-02T05:18:41;96891.97;;;17.78;23.18
64064;BME280;50314;50.618;10.642;2023-05-02T05:21:08;96894.47;;;17.79;23.60
64064;BME280;50314;50.618;10.642;2023-05-02T05:23:34;96899.66;;;17.81;23.43
64064;BME280;50314;50.618;10.642;2023-05-02T05:26:10;96900.78;;;17.78;23.37
64064;BME280;50314;50.618;10.642;2023-05-02T05:28:36;96895.31;;;17.80;23.63
64064;BME280;50314;50.618;10.642;2023-05-02T05:31:12;96897.47;;;17.76;23.81
64064;BME280;50314;50.618;10.642;2023-05-02T05:33:39;96903.44;;;17.78;23.31
64064;BME280;50314;50.618;10.642;2023-05-02T05:36:09;96898.97;;;17.79;23.52
64064;BME280;50314;50.618;10.642;2023-05-02T05:38:35;96902.31;;;17.81;23.29
64064;BME280;50314;50.618;10.642;2023-05-02T05:41:01;96903.97;;;17.82;23.45
64064;BME280;50314;50.618;10.642;2023-05-02T05:43:27;96906.50;;;17.83;23.45
64064;BME280;50314;50.618;10.642;2023-05-02T05:45:53;96908.31;;;17.83;23.66
64064;BME280;50314;50.618;10.642;2023-05-02T05:48:19;96908.31;;;17.83;23.24
64064;BME280;50314;50.618;10.642;2023-05-02T05:50:45;96911.84;;;17.83;23.51
64064;BME280;50314;50.618;10.642;2023-05-02T05:53:11;96915.47;;;17.82;23.30
64064;BME280;50314;50.618;10.642;2023-05-02T05:55:36;96920.78;;;17.82;23.38
64064;BME280;50314;50.618;10.642;2023-05-02T05:58:03;96925.00;;;17.85;23.53
64064;BME280;50314;50.618;10.642;2023-05-02T06:00:29;96928.34;;;17.87;23.62
64064;BME280;50314;50.618;10.642;2023-05-02T06:02:55;96929.19;;;17.88;23.82
64064;BME280;50314;50.618;10.642;2023-05-02T06:05:20;96925.50;;;17.89;23.37
64064;BME280;50314;50.618;10.642;2023-05-02T06:07:46;96934.50;;;17.88;23.75
64064;BME280;50314;50.618;10.642;2023-05-02T06:10:11;96933.69;;;17.87;23.49
64064;BME280;50314;50.618;10.642;2023-05-02T06:12:37;96936.34;;;17.87;23.40
64064;BME280;50314;50.618;10.642;2023-05-02T06:15:02;96938.84;;;17.89;23.73
64064;BME280;50314;50.618;10.642;2023-05-02T06:17:28;96943.16;;;17.90;23.60
64064;BME280;50314;50.618;10.642;2023-05-02T06:19:53;96953.69;;;17.91;23.75
64064;BME280;50314;50.618;10.642;2023-05-02T06:22:18;96951.84;;;17.92;23.82
64064;BME280;50314;50.618;10.642;2023-05-02T06:24:44;96952.69;;;17.92;23.73
64064;BME280;50314;50.618;10.642;2023-05-02T06:27:09;96949.88;;;17.94;23.72
64064;BME280;50314;50.618;10.642;2023-05-02T06:29:37;96956.72;;;17.96;23.43
64064;BME280;50314;50.618;10.642;2023-05-02T06:32:03;96966.25;;;17.99;23.67
64064;BME280;50314;50.618;10.642;2023-05-02T06:34:31;96963.44;;;18.00;23.40
64064;BME280;50314;50.618;10.642;2023-05-02T06:36:57;96968.47;;;18.03;23.33
64064;BME280;50314;50.618;10.642;2023-05-02T06:39:23;96969.97;;;18.06;23.35
64064;BME280;50314;50.618;10.642;2023-05-02T06:41:48;96976.97;;;18.07;23.54
64064;BME280;50314;50.618;10.642;2023-05-02T06:44:14;96969.81;;;18.07;23.65
64064;BME280;50314;50.618;10.642;2023-05-02T06:46:39;96973.16;;;18.09;23.49
64064;BME280;50314;50.618;10.642;2023-05-02T06:49:05;96977.50;;;18.11;23.44
64064;BME280;50314;50.618;10.642;2023-05-02T06:51:30;96981.69;;;18.13;23.70
64064;BME280;50314;50.618;10.642;2023-05-02T06:53:56;96993.22;;;18.14;23.51
64064;BME280;50314;50.618;10.642;2023-05-02T06:56:23;96991.22;;;18.16;23.47
64064;BME280;50314;50.618;10.642;2023-05-02T06:58:50;96985.06;;;18.15;23.50
64064;BME280;50314;50.618;10.642;2023-05-02T07:01:15;96994.41;;;18.19;23.42
64064;BME280;50314;50.618;10.642;2023-05-02T07:03:41;96996.13;;;18.20;23.87
64064;BME280;50314;50.618;10.642;2023-05-02T07:06:06;97005.63;;;18.23;23.49
64064;BME280;50314;50.618;10.642;2023-05-02T07:08:31;97007.44;;;18.22;23.68
64064;BME280;50314;50.618;10.642;2023-05-02T07:10:57;97015.31;;;18.24;23.90
64064;BME280;50314;50.618;10.642;2023-05-02T07:13:22;97019.47;;;18.26;23.82
64064;BME280;50314;50.618;10.642;2023-05-02T07:15:48;97021.84;;;18.29;23.85
64064;BME280;50314;50.618;10.642;2023-05-02T07:18:13;97019.16;;;18.29;23.91
64064;BME280;50314;50.618;10.642;2023-05-02T07:20:39;97022.53;;;18.31;23.88
64064;BME280;50314;50.618;10.642;2023-05-02T07:23:06;97019.56;;;18.35;23.88
64064;BME280;50314;50.618;10.642;2023-05-02T07:25:33;97018.56;;;18.36;23.66
64064;BME280;50314;50.618;10.642;2023-05-02T07:27:58;97021.09;;;18.37;23.82
64064;BME280;50314;50.618;10.642;2023-05-02T07:30:24;97024.28;;;18.41;23.79
64064;BME280;50314;50.618;10.642;2023-05-02T07:32:50;97015.09;;;18.43;23.60
64064;BME280;50314;50.618;10.642;2023-05-02T07:35:15;97022.97;;;18.45;23.84
64064;BME280;50314;50.618;10.642;2023-05-02T07:37:41;97021.66;;;18.49;23.47
64064;BME280;50314;50.618;10.642;2023-05-02T07:40:07;97022.03;;;18.54;23.88
64064;BME280;50314;50.618;10.642;2023-05-02T07:42:33;97022.34;;;18.51;23.61
64064;BME280;50314;50.618;10.642;2023-05-02T07:44:59;97030.09;;;18.62;23.61
64064;BME280;50314;50.618;10.642;2023-05-02T07:47:24;97030.44;;;18.67;23.36
64064;BME280;50314;50.618;10.642;2023-05-02T07:49:54;97036.16;;;18.72;23.55
64064;BME280;50314;50.618;10.642;2023-05-02T07:52:20;97037.41;;;18.78;23.58
64064;BME280;50314;50.618;10.642;2023-05-02T07:54:50;97039.91;;;18.80;23.36
64064;BME280;50314;50.618;10.642;2023-05-02T07:57:16;97037.44;;;18.86;23.23
64064;BME280;50314;50.618;10.642;2023-05-02T07:59:41;97041.47;;;18.90;23.75
64064;BME280;50314;50.618;10.642;2023-05-02T08:02:07;97041.84;;;18.95;23.83
64064;BME280;50314;50.618;10.642;2023-05-02T08:04:33;97045.69;;;19.01;23.80
64064;BME280;50314;50.618;10.642;2023-05-02T08:06:58;97060.09;;;19.08;23.77
64064;BME280;50314;50.618;10.642;2023-05-02T08:09:24;97055.09;;;19.13;23.29
64064;BME280;50314;50.618;10.642;2023-05-02T08:11:50;97064.31;;;19.19;23.60
64064;BME280;50314;50.618;10.642;2023-05-02T08:14:15;97055.81;;;19.23;23.40
64064;BME280;50314;50.618;10.642;2023-05-02T08:16:41;97060.53;;;19.30;23.61
64064;BME280;50314;50.618;10.642;2023-05-02T08:19:07;97063.53;;;19.35;23.63
64064;BME280;50314;50.618;10.642;2023-05-02T08:21:32;97065.63;;;19.41;23.48
64064;BME280;50314;50.618;10.642;2023-05-02T08:23:58;97058.63;;;19.48;23.40
64064;BME280;50314;50.618;10.642;2023-05-02T08:26:24;97062.31;;;19.55;23.61
64064;BME280;50314;50.618;10.642;2023-05-02T08:28:53;97065.19;;;19.62;23.45
64064;BME280;50314;50.618;10.642;2023-05-02T08:31:19;97067.59;;;19.73;23.53
64064;BME280;50314;50.618;10.642;2023-05-02T08:33:45;97071.09;;;19.82;23.35
64064;BME280;50314;50.618;10.642;2023-05-02T08:36:13;97066.81;;;19.97;23.68
64064;BME280;50314;50.618;10.642;2023-05-02T08:38:43;97074.38;;;20.10;23.35
64064;BME280;50314;50.618;10.642;2023-05-02T08:41:16;97081.25;;;20.21;23.39
64064;BME280;50314;50.618;10.642;2023-05-02T08:43:43;97077.59;;;20.30;23.21
64064;BME280;50314;50.618;10.642;2023-05-02T08:46:11;97080.59;;;20.35;23.01
64064;BME280;50314;50.618;10.642;2023-05-02T08:48:40;97071.22;;;20.39;23.12
64064;BME280;50314;50.618;10.642;2023-05-02T08:51:12;97073.56;;;20.42;23.03
64064;BME280;50314;50.618;10.642;2023-05-02T08:53:38;97079.78;;;20.51;23.06
64064;BME280;50314;50.618;10.642;2023-05-02T08:56:06;97087.97;;;20.57;23.05
64064;BME280;50314;50.618;10.642;2023-05-02T08:58:34;97088.00;;;20.65;22.93
64064;BME280;50314;50.618;10.642;2023-05-02T09:01:00;97093.03;;;20.77;22.88
64064;BME280;50314;50.618;10.642;2023-05-02T09:03:34;97087.31;;;20.80;22.65
64064;BME280;50314;50.618;10.642;2023-05-02T09:06:08;97097.00;;;20.89;22.89
64064;BME280;50314;50.618;10.642;2023-05-02T09:08:35;97097.16;;;21.04;22.59
64064;BME280;50314;50.618;10.642;2023-05-02T09:11:02;97104.00;;;21.15;22.65
64064;BME280;50314;50.618;10.642;2023-05-02T09:13:36;97102.69;;;21.19;22.40
64064;BME280;50314;50.618;10.642;2023-05-02T09:16:10;97106.69;;;21.23;22.31
64064;BME280;50314;50.618;10.642;2023-05-02T09:18:44;97109.69;;;21.28;22.49
64064;BME280;50314;50.618;10.642;2023-05-02T09:23:42;97109.69;;;21.28;22.18
64064;BME280;50314;50.618;10.642;2023-05-02T09:26:28;97099.47;;;21.23;22.33
64064;BME280;50314;50.618;10.642;2023-05-02T09:28:57;97098.78;;;21.29;22.42
64064;BME280;50314;50.618;10.642;2023-05-02T09:31:24;97112.03;;;21.31;22.38
64064;BME280;50314;50.618;10.642;2023-05-02T09:33:50;97109.84;;;21.34;22.19
64064;BME280;50314;50.618;10.642;2023-05-02T09:36:17;97110.34;;;21.38;22.09
64064;BME280;50314;50.618;10.642;2023-05-02T09:38:45;97107.13;;;21.43;22.19
64064;BME280;50314;50.618;10.642;2023-05-02T09:41:11;97113.31;;;21.51;22.28
64064;BME280;50314;50.618;10.642;2023-05-02T09:43:37;97101.31;;;21.70;22.39
64064;BME280;50314;50.618;10.642;2023-05-02T09:46:06;97105.75;;;21.94;21.95
64064;BME280;50314;50.618;10.642;2023-05-02T09:48:53;97112.59;;;22.36;22.21
64064;BME280;50314;50.618;10.642;2023-05-02T09:51:21;97109.03;;;23.19;21.35
64064;BME280;50314;50.618;10.642;2023-05-02T09:53:47;97111.03;;;23.70;20.52
64064;BME280;50314;50.618;10.642;2023-05-02T09:56:13;97113.34;;;23.73;20.40
64064;BME280;50314;50.618;10.642;2023-05-02T09:58:38;97122.63;;;23.71;19.44
64064;BME280;50314;50.618;10.642;2023-05-02T10:01:04;97131.25;;;23.66;19.63
64064;BME280;50314;50.618;10.642;2023-05-02T10:03:30;97134.28;;;23.63;19.62
64064;BME280;50314;50.618;10.642;2023-05-02T10:05:56;97132.34;;;23.57;19.95
64064;BME280;50314;50.618;10.642;2023-05-02T10:08:26;97125.41;;;23.48;19.76
64064;BME280;50314;50.618;10.642;2023-05-02T10:10:57;97134.56;;;23.38;20.18
64064;BME280;50314;50.618;10.642;2023-05-02T10:13:25;97135.28;;;23.32;20.06
64064;BME280;50314;50.618;10.642;2023-05-02T10:16:03;97134.91;;;23.20;19.84
64064;BME280;50314;50.618;10.642;2023-05-02T10:19:08;97139.53;;;23.12;20.11
64064;BME280;50314;50.618;10.642;2023-05-02T10:21:33;97132.00;;;23.07;20.52
64064;BME280;50314;50.618;10.642;2023-05-02T10:24:00;97138.94;;;23.02;20.09
64064;BME280;50314;50.618;10.642;2023-05-02T10:26:28;97138.00;;;22.94;20.22
64064;BME280;50314;50.618;10.642;2023-05-02T10:28:55;97133.50;;;22.87;20.54
64064;BME280;50314;50.618;10.642;2023-05-02T10:31:21;97130.53;;;22.82;20.54
64064;BME280;50314;50.618;10.642;2023-05-02T10:33:50;97136.59;;;22.75;20.54
64064;BME280;50314;50.618;10.642;2023-05-02T10:36:20;97133.66;;;22.70;20.63
64064;BME280;50314;50.618;10.642;2023-05-02T10:38:47;97132.16;;;22.68;20.74
64064;BME280;50314;50.618;10.642;2023-05-02T10:41:15;97136.22;;;22.64;20.99
64064;BME280;50314;50.618;10.642;2023-05-02T10:43:45;97139.06;;;22.62;20.69
64064;BME280;50314;50.618;10.642;2023-05-02T10:46:31;97143.13;;;22.58;20.83
64064;BME280;50314;50.618;10.642;2023-05-02T10:49:13;97127.81;;;22.67;21.40
64064;BME280;50314;50.618;10.642;2023-05-02T10:51:40;97122.19;;;22.77;20.72
64064;BME280;50314;50.618;10.642;2023-05-02T10:59:32;97132.34;;;23.86;20.20
64064;BME280;50314;50.618;10.642;2023-05-02T11:01:58;97118.22;;;24.50;20.45
64064;BME280;50314;50.618;10.642;2023-05-02T11:04:24;97114.91;;;25.19;19.90
64064;BME280;50314;50.618;10.642;2023-05-02T11:11:50;97104.00;;;26.10;18.27
64064;BME280;50314;50.618;10.642;2023-05-02T11:24:41;97118.50;;;26.03;16.60
64064;BME280;50314;50.618;10.642;2023-05-02T11:32:21;97129.56;;;25.45;17.53
64064;BME280;50314;50.618;10.642;2023-05-02T11:34:48;97129.47;;;25.31;17.71
64064;BME280;50314;50.618;10.642;2023-05-02T11:37:18;97129.22;;;25.20;17.77
64064;BME280;50314;50.618;10.642;2023-05-02T11:39:45;97124.97;;;25.11;18.00
64064;BME280;50314;50.618;10.642;2023-05-02T11:42:30;97124.19;;;24.95;18.15
64064;BME280;50314;50.618;10.642;2023-05-02T11:44:58;97128.13;;;24.93;18.25
64064;BME280;50314;50.618;10.642;2023-05-02T11:47:25;97130.13;;;24.84;18.31
64064;BME280;50314;50.618;10.642;2023-05-02T11:49:53;97128.41;;;24.76;18.24
64064;BME280;50314;50.618;10.642;2023-05-02T11:52:19;97138.47;;;24.68;18.44
64064;BME280;50314;50.618;10.642;2023-05-02T11:54:45;97140.47;;;24.59;18.51
64064;BME280;50314;50.618;10.642;2023-05-02T11:57:11;97134.38;;;24.50;18.66
64064;BME280;50314;50.618;10.642;2023-05-02T11:59:53;97134.19;;;24.37;18.74
64064;BME280;50314;50.618;10.642;2023-05-02T12:02:19;97136.06;;;24.36;18.94
64064;BME280;50314;50.618;10.642;2023-05-02T12:04:45;97133.94;;;24.32;18.78
64064;BME280;50314;50.618;10.642;2023-05-02T12:07:11;97133.38;;;24.36;18.95
64064;BME280;50314;50.618;10.642;2023-05-02T12:09:52;97131.31;;;24.38;19.22
64064;BME280;50314;50.618;10.642;2023-05-02T12:12:20;97128.59;;;24.53;19.31
64064;BME280;50314;50.618;10.642;2023-05-02T12:14:46;97126.03;;;24.67;18.84
64064;BME280;50314;50.618;10.642;2023-05-02T12:17:12;97115.97;;;24.75;18.76
64064;BME280;50314;50.618;10.642;2023-05-02T12:19:37;97118.91;;;24.80;18.98
64064;BME280;50314;50.618;10.642;2023-05-02T12:22:03;97136.34;;;24.84;18.13
64064;BME280;50314;50.618;10.642;2023-05-02T12:24:30;97139.81;;;24.78;17.86
64064;BME280;50314;50.618;10.642;2023-05-02T12:27:16;97148.63;;;24.66;17.61
64064;BME280;50314;50.618;10.642;2023-05-02T12:29:44;97153.72;;;24.60;17.67
64064;BME280;50314;50.618;10.642;2023-05-02T12:32:11;97152.19;;;24.51;17.53
64064;BME280;50314;50.618;10.642;2023-05-02T12:34:37;97157.88;;;24.42;17.85
64064;BME280;50314;50.618;10.642;2023-05-02T12:37:03;97161.25;;;24.29;17.19
64064;BME280;50314;50.618;10.642;2023-05-02T12:39:42;97151.44;;;24.21;17.55
64064;BME280;50314;50.618;10.642;2023-05-02T12:42:09;97156.31;;;24.18;17.79
64064;BME280;50314;50.618;10.642;2023-05-02T12:44:36;97156.72;;;24.14;17.80
64064;BME280;50314;50.618;10.642;2023-05-02T12:47:05;97163.31;;;24.12;17.77
64064;BME280;50314;50.618;10.642;2023-05-02T12:49:32;97166.09;;;24.19;17.44
64064;BME280;50314;50.618;10.642;2023-05-02T12:51:57;97163.28;;;24.27;17.84
64064;BME280;50314;50.618;10.642;2023-05-02T12:54:23;97163.63;;;24.38;17.84
64064;BME280;50314;50.618;10.642;2023-05-02T12:56:51;97158.41;;;24.52;17.91
64064;BME280;50314;50.618;10.642;2023-05-02T12:59:27;97168.41;;;24.58;17.67
64064;BME280;50314;50.618;10.642;2023-05-02T13:01:52;97164.38;;;24.69;17.98
64064;BME280;50314;50.618;10.642;2023-05-02T13:04:18;97161.75;;;24.75;17.92
64064;BME280;50314;50.618;10.642;2023-05-02T13:06:43;97168.03;;;24.82;18.13
64064;BME280;50314;50.618;10.642;2023-05-02T13:09:09;97167.06;;;24.90;18.10
64064;BME280;50314;50.618;10.642;2023-05-02T13:11:34;97174.16;;;24.98;18.00
64064;BME280;50314;50.618;10.642;2023-05-02T13:14:00;97176.13;;;25.04;17.57
64064;BME280;50314;50.618;10.642;2023-05-02T13:16:28;97180.88;;;25.02;18.12
64064;BME280;50314;50.618;10.642;2023-05-02T13:18:54;97179.56;;;24.98;17.91
64064;BME280;50314;50.618;10.642;2023-05-02T13:21:19;97189.06;;;24.94;18.07
64064;BME280;50314;50.618;10.642;2023-05-02T13:23:48;97183.44;;;24.89;17.67
64064;BME280;50314;50.618;10.642;2023-05-02T13:26:15;97189.84;;;24.88;18.13
64064;BME280;50314;50.618;10.642;2023-05-02T13:28:41;97185.66;;;24.85;18.18
64064;BME280;50314;50.618;10.642;2023-05-02T13:31:06;97185.66;;;24.85;18.26
64064;BME280;50314;50.618;10.642;2023-05-02T13:33:32;97190.88;;;24.87;18.16
64064;BME280;50314;50.618;10.642;2023-05-02T13:35:57;97194.22;;;24.89;18.25
64064;BME280;50314;50.618;10.642;2023-05-02T13:38:23;97187.78;;;24.90;18.32